createdAt,value
2019-01-02T00:01:44.479Z,2.53
2019-01-02T00:06:29.295Z,2.80
2019-01-02T00:11:14.424Z,3.43
2019-01-02T00:15:59.399Z,2.43
2019-01-02T00:20:44.398Z,3.00
2019-01-02T00:25:29.562Z,2.23
2019-01-02T00:30:14.452Z,2.83
2019-01-02T00:34:59.291Z,3.27
2019-01-02T00:39:43.971Z,2.53
2019-01-02T00:44:28.580Z,3.13
2019-01-02T00:49:13.386Z,3.07
2019-01-02T00:53:58.030Z,4.07
2019-01-02T00:58:42.622Z,3.03
2019-01-02T01:03:27.290Z,2.77
2019-01-02T01:08:12.175Z,2.90
2019-01-02T01:13:03.135Z,3.73
2019-01-02T01:17:47.841Z,3.47
2019-01-02T01:22:32.530Z,3.80
2019-01-02T01:27:17.164Z,3.83
2019-01-02T01:32:02.814Z,4.13
2019-01-02T01:36:47.458Z,3.67
2019-01-02T01:41:32.428Z,3.43
2019-01-02T01:46:17.266Z,3.33
2019-01-02T01:51:02.198Z,3.90
2019-01-02T01:55:46.755Z,4.20
2019-01-02T02:00:31.347Z,3.33
2019-01-02T02:05:15.953Z,4.57
2019-01-02T02:10:00.597Z,3.13
2019-01-02T02:14:45.141Z,3.80
2019-01-02T02:19:29.697Z,4.43
2019-01-02T02:24:14.327Z,4.00
2019-01-02T02:28:58.873Z,3.93
2019-01-02T02:33:43.510Z,3.50
2019-01-02T02:38:28.565Z,4.17
2019-01-02T02:43:13.555Z,3.93
2019-01-02T02:47:58.113Z,2.97
2019-01-02T02:52:43.076Z,3.53
2019-01-02T02:57:27.702Z,3.50
2019-01-02T03:02:12.312Z,3.40
2019-01-02T03:06:57.084Z,3.83
2019-01-02T03:11:42.043Z,4.53
2019-01-02T03:16:26.656Z,3.67
2019-01-02T03:21:11.542Z,3.83
2019-01-02T03:25:56.088Z,3.67
2019-01-02T03:30:41.022Z,4.70
2019-01-02T03:35:25.877Z,3.50
2019-01-02T03:40:10.975Z,4.63
2019-01-02T03:44:55.554Z,4.23
2019-01-02T03:49:40.093Z,5.17
2019-01-02T03:54:24.674Z,3.73
2019-01-02T03:59:09.310Z,4.23
2019-01-02T04:03:53.957Z,4.73
2019-01-02T04:08:38.577Z,4.20
2019-01-02T04:13:23.235Z,5.37
2019-01-02T04:18:07.935Z,4.77
2019-01-02T04:22:52.423Z,4.30
2019-01-02T04:27:37.159Z,3.63
2019-01-02T04:32:21.893Z,5.00
2019-01-02T04:37:06.403Z,3.67
2019-01-02T04:41:50.959Z,4.00
2019-01-02T04:46:35.525Z,4.17
2019-01-02T04:51:20.072Z,3.70
2019-01-02T04:56:04.653Z,3.63
2019-01-02T05:00:49.276Z,4.13
2019-01-02T05:05:33.835Z,4.20
2019-01-02T05:10:18.387Z,4.20
2019-01-02T05:15:02.988Z,3.90
2019-01-02T05:19:47.595Z,4.13
2019-01-02T05:24:32.228Z,3.30
2019-01-02T05:29:16.757Z,3.53
2019-01-02T05:34:01.396Z,4.23
2019-01-02T05:38:46.046Z,3.23
2019-01-02T05:43:30.621Z,3.50
2019-01-02T05:48:15.563Z,4.20
2019-01-02T05:53:00.207Z,3.33
2019-01-02T05:57:44.776Z,3.97
2019-01-02T06:02:29.317Z,3.60
2019-01-02T06:07:14.045Z,3.47
2019-01-02T06:11:58.947Z,3.27
2019-01-02T06:16:43.658Z,3.33
2019-01-02T06:21:28.321Z,3.53
2019-01-02T06:26:12.984Z,3.50
2019-01-02T06:30:57.804Z,3.67
2019-01-02T06:35:42.444Z,3.60
2019-01-02T06:40:26.947Z,3.33
2019-01-02T06:45:13.846Z,3.83
2019-01-02T06:49:58.507Z,2.93
2019-01-02T06:54:45.352Z,3.80
2019-01-02T06:59:29.919Z,3.00
2019-01-02T07:04:14.469Z,2.93
2019-01-02T07:08:59.090Z,3.30
2019-01-02T07:13:43.652Z,2.70
2019-01-02T07:18:28.211Z,3.50
2019-01-02T07:23:12.799Z,3.20
2019-01-02T07:27:57.444Z,4.30
2019-01-02T07:32:41.990Z,2.67
2019-01-02T07:38:09.166Z,3.00
2019-01-02T07:43:33.447Z,2.43
2019-01-02T07:48:42.403Z,2.67
2019-01-02T07:54:16.712Z,2.50
2019-01-02T07:59:48.682Z,2.90
2019-01-02T08:05:04.616Z,2.77
2019-01-02T08:10:24.538Z,2.70
2019-01-02T08:15:54.907Z,2.70
2019-01-02T08:21:11.506Z,2.43
2019-01-02T08:26:30.234Z,2.40
2019-01-02T08:31:47.998Z,2.70
2019-01-02T08:37:14.355Z,2.00
2019-01-02T08:42:37.177Z,1.93
2019-01-02T08:48:20.885Z,1.60
2019-01-02T08:53:33.710Z,1.60
2019-01-02T08:58:51.230Z,1.37
2019-01-02T09:04:15.427Z,1.87
2019-01-02T09:09:41.333Z,1.30
2019-01-02T09:15:02.297Z,1.53
2019-01-02T09:20:43.034Z,1.40
2019-01-02T09:26:02.656Z,1.53
2019-01-02T09:31:35.809Z,1.50
2019-01-02T09:37:00.329Z,1.67
2019-01-02T09:42:27.672Z,1.83
2019-01-02T09:47:50.115Z,1.70
2019-01-02T09:53:16.931Z,1.40
2019-01-02T09:58:39.932Z,1.83
2019-01-02T10:04:09.631Z,1.73
2019-01-02T10:09:36.033Z,1.50
2019-01-02T10:15:02.777Z,1.60
2019-01-02T10:20:43.875Z,1.67
2019-01-02T10:25:50.324Z,1.47
2019-01-02T10:31:12.170Z,1.90
2019-01-02T10:37:08.342Z,1.90
2019-01-02T10:42:57.543Z,2.30
2019-01-02T10:48:39.312Z,1.67
2019-01-02T10:53:58.540Z,1.50
2019-01-02T10:59:48.484Z,1.30
2019-01-02T11:11:39.075Z,1.40
2019-01-02T11:17:05.917Z,1.70
2019-01-02T11:22:27.462Z,1.80
2019-01-02T11:28:03.477Z,2.10
2019-01-02T11:33:23.529Z,1.53
2019-01-02T11:38:50.203Z,1.73
2019-01-02T11:44:21.272Z,2.00
2019-01-02T11:49:06.127Z,0.80
2019-01-02T11:53:50.799Z,1.10
2019-01-02T11:58:35.518Z,0.57
2019-01-02T12:03:20.295Z,0.67
2019-01-02T12:08:06.643Z,1.50
2019-01-02T12:12:53.585Z,1.27
2019-01-02T12:17:39.077Z,1.37
2019-01-02T12:22:30.256Z,1.37
2019-01-02T12:27:15.556Z,1.27
2019-01-02T12:32:00.671Z,1.50
2019-01-02T12:36:45.643Z,1.43
2019-01-02T12:41:30.246Z,1.07
2019-01-02T12:46:14.890Z,1.20
2019-01-02T12:50:59.739Z,1.50
2019-01-02T12:55:45.082Z,1.30
2019-01-02T13:00:35.931Z,1.40
2019-01-02T13:05:58.210Z,1.17
2019-01-02T13:11:05.247Z,1.30
2019-01-02T13:16:12.834Z,1.40
2019-01-02T13:21:13.297Z,1.40
2019-01-02T13:26:29.224Z,1.10
2019-01-02T13:32:10.442Z,1.30
2019-01-02T13:37:12.398Z,1.53
2019-01-02T13:42:44.713Z,1.50
2019-01-02T13:48:11.091Z,2.03
2019-01-02T13:52:56.913Z,1.57
2019-01-02T13:57:41.884Z,1.50
2019-01-02T14:02:26.927Z,1.37
2019-01-02T14:07:12.312Z,1.43
2019-01-02T14:11:58.069Z,1.50
2019-01-02T14:16:43.043Z,1.70
2019-01-02T14:21:43.209Z,1.90
2019-01-02T14:26:46.893Z,1.97
2019-01-02T14:31:31.723Z,2.20
2019-01-02T14:36:16.560Z,1.70
2019-01-02T14:41:40.586Z,2.00
2019-01-02T14:46:25.321Z,1.60
2019-01-02T14:51:09.951Z,1.73
2019-01-02T14:55:54.530Z,2.00
2019-01-02T15:00:39.193Z,1.47
2019-01-02T15:05:23.881Z,1.73
2019-01-02T15:10:11.793Z,1.60
2019-01-02T15:14:56.361Z,1.80
2019-01-02T15:19:41.637Z,1.43
2019-01-02T15:24:26.305Z,1.37
2019-01-02T15:29:10.967Z,1.40
2019-01-02T15:33:55.667Z,1.40
2019-01-02T15:38:40.256Z,1.80
2019-01-02T15:43:24.943Z,1.20
2019-01-02T15:48:12.929Z,1.63
2019-01-02T15:53:01.644Z,0.83
2019-01-02T15:57:48.727Z,1.03
2019-01-02T16:02:33.601Z,1.37
2019-01-02T16:07:18.170Z,1.53
2019-01-02T16:12:02.793Z,1.30
2019-01-02T16:16:48.219Z,1.87
2019-01-02T16:21:32.868Z,0.90
2019-01-02T16:26:17.359Z,1.17
2019-01-02T16:31:17.437Z,1.33
2019-01-02T16:36:01.976Z,1.60
2019-01-02T16:40:46.615Z,1.47
2019-01-02T16:45:31.585Z,1.47
2019-01-02T16:50:16.262Z,1.43
2019-01-02T16:55:00.977Z,1.50
2019-01-02T16:59:45.937Z,1.03
2019-01-02T17:04:30.720Z,1.87
2019-01-02T17:09:15.475Z,1.97
2019-01-02T17:14:00.115Z,1.80
2019-01-02T17:18:44.717Z,1.70
2019-01-02T17:23:29.336Z,1.60
2019-01-02T17:28:14.392Z,2.50
2019-01-02T17:32:59.064Z,1.93
2019-01-02T17:37:44.478Z,1.50
2019-01-02T17:42:29.209Z,1.30
2019-01-02T17:47:13.936Z,1.60
2019-01-02T17:52:08.187Z,1.50
2019-01-02T17:56:53.015Z,2.05
2019-01-02T18:01:48.717Z,2.20
2019-01-02T18:06:33.924Z,1.40
2019-01-02T18:11:19.864Z,1.60
2019-01-02T18:16:06.108Z,1.90
2019-01-02T18:20:52.100Z,1.43
2019-01-02T18:25:36.741Z,1.60
2019-01-02T18:30:21.322Z,1.50
2019-01-02T18:35:06.148Z,1.23
2019-01-02T18:39:50.707Z,1.20
2019-01-02T18:44:35.269Z,1.80
2019-01-02T18:49:19.809Z,1.30
2019-01-02T18:54:04.635Z,1.40
2019-01-02T18:58:58.797Z,1.60
2019-01-02T19:03:43.468Z,1.60
2019-01-02T19:08:28.156Z,1.60
2019-01-02T19:13:12.866Z,1.30
2019-01-02T19:17:57.435Z,1.10
2019-01-02T19:22:42.069Z,1.10
2019-01-02T19:27:26.894Z,1.37
2019-01-02T19:32:11.680Z,1.50
2019-01-02T19:37:01.824Z,1.07
2019-01-02T19:41:49.447Z,1.13
2019-01-02T19:46:43.370Z,1.43
2019-01-02T19:51:28.257Z,1.73
2019-01-02T19:56:17.017Z,1.53
2019-01-02T20:01:05.158Z,1.03
2019-01-02T20:05:50.021Z,1.07
2019-01-02T20:10:36.689Z,0.90
2019-01-02T20:15:21.857Z,1.23
2019-01-02T20:20:07.869Z,1.07
2019-01-02T20:24:53.308Z,0.93
2019-01-02T20:29:38.233Z,0.97
2019-01-02T20:34:22.850Z,2.40
2019-01-02T20:39:08.963Z,0.67
2019-01-02T20:43:53.564Z,1.17
2019-01-02T20:48:38.294Z,0.97
2019-01-02T20:53:23.346Z,1.20
2019-01-02T20:58:11.149Z,0.80
2019-01-02T21:02:55.809Z,1.17
2019-01-02T21:07:43.526Z,1.07
2019-01-02T21:12:32.108Z,1.30
2019-01-02T21:17:17.171Z,1.30
2019-01-02T21:22:01.876Z,1.27
2019-01-02T21:26:46.546Z,1.20
2019-01-02T21:31:31.316Z,1.17
2019-01-02T21:36:16.100Z,0.90
2019-01-02T21:41:01.099Z,1.00
2019-01-02T21:45:45.878Z,1.90
2019-01-02T21:50:33.249Z,1.27
2019-01-02T21:55:18.054Z,0.90
2019-01-02T22:00:02.965Z,1.60
2019-01-02T22:04:47.747Z,1.53
2019-01-02T22:09:33.750Z,1.00
2019-01-02T22:14:18.613Z,1.67
2019-01-02T22:19:03.132Z,1.63
2019-01-02T22:23:47.699Z,1.13
2019-01-02T22:28:32.331Z,1.20
2019-01-02T22:33:17.085Z,1.17
2019-01-02T22:38:04.970Z,1.60
2019-01-02T22:42:49.732Z,1.53
2019-01-02T22:47:34.283Z,1.57
2019-01-02T22:52:18.864Z,1.40
2019-01-02T22:57:03.468Z,1.20
2019-01-02T23:02:02.278Z,1.40
2019-01-02T23:07:14.831Z,1.10
2019-01-02T23:12:17.122Z,1.23
2019-01-02T23:17:17.722Z,1.00
2019-01-02T23:22:23.932Z,1.30
2019-01-02T23:27:36.262Z,1.47
2019-01-02T23:32:48.464Z,1.20
2019-01-02T23:37:50.317Z,1.27
2019-01-02T23:42:56.485Z,1.60
2019-01-02T23:47:59.372Z,1.23
2019-01-02T23:53:02.907Z,1.40
2019-01-02T23:58:06.342Z,1.17
